Time;durP1;ratioP1;P1;durP2;ratioP2;P2;SDS_P1;SDS_P2;PMS_P1;PMS_P2;Temp;Humidity;BMP_temperature;BMP_pressure;BME280_temperature;BME280_humidity;BME280_pressure;Samples;Min_cycle;Max_cycle;Signal;HPM_P1;HPM_P2
2023/10/29 00:02:24;;;;;;;4.30;1.73;;;;;;;16.12;45.15;93786.94;4992350;28;20485;-79
2023/10/29 00:04:50;;;;;;;3.58;1.30;;;;;;;16.02;45.25;93768.69;4993675;28;20038;-80
2023/10/29 00:07:15;;;;;;;4.05;1.77;;;;;;;16.13;45.29;93785.81;4991772;28;20037;-79
2023/10/29 00:09:40;;;;;;;6.38;1.45;;;;;;;16.09;45.29;93768.06;5009669;28;20030;-79
2023/10/29 00:12:08;;;;;;;5.68;1.30;;;;;;;16.14;45.02;93781.97;4988208;28;20547;-78
2023/10/29 00:14:33;;;;;;;3.47;1.70;;;;;;;16.12;44.94;93773.53;4983556;28;20045;-79
2023/10/29 00:16:59;;;;;;;3.63;1.40;;;;;;;16.17;45.25;93785.88;4994113;28;20378;-79
2023/10/29 00:19:24;;;;;;;7.03;2.10;;;;;;;16.19;45.44;93791.66;4994063;28;20147;-79
2023/10/29 00:21:49;;;;;;;4.75;1.30;;;;;;;16.19;44.89;93789.75;4995807;28;20045;-78
2023/10/29 00:24:15;;;;;;;6.97;1.20;;;;;;;16.03;45.40;93783.66;4994008;28;20601;-80
2023/10/29 00:26:40;;;;;;;4.55;1.33;;;;;;;15.93;45.66;93780.72;4991515;28;20034;-78
2023/10/29 00:29:06;;;;;;;3.13;1.23;;;;;;;15.90;45.28;93798.25;4995427;28;20045;-78
2023/10/29 00:31:32;;;;;;;5.95;1.20;;;;;;;15.88;45.12;93800.53;4994690;28;20121;-78
2023/10/29 00:33:57;;;;;;;6.35;1.65;;;;;;;15.77;45.44;93794.13;4993712;28;20249;-79
2023/10/29 00:36:33;;;;;;;3.65;1.20;;;;;;;15.82;45.32;93805.38;4993314;28;20546;-80
2023/10/29 00:38:58;;;;;;;5.25;1.75;;;;;;;15.60;45.49;93797.91;4993596;28;20211;-79
2023/10/29 00:41:24;;;;;;;7.13;1.50;;;;;;;15.62;45.72;93806.38;4987669;28;20025;-79
2023/10/29 00:43:49;;;;;;;1.80;0.90;;;;;;;15.51;45.72;93788.47;4993663;28;20050;-79
2023/10/29 00:46:15;;;;;;;12.68;2.47;;;;;;;15.36;45.73;93801.47;4994323;28;20488;-78
2023/10/29 00:48:41;;;;;;;6.28;1.70;;;;;;;15.48;45.63;93807.94;4995971;28;20049;-79
2023/10/29 00:51:07;;;;;;;5.47;2.00;;;;;;;15.40;45.78;93796.97;4992504;28;20037;-78
2023/10/29 00:53:33;;;;;;;5.85;1.70;;;;;;;15.48;45.98;93813.28;4994167;28;20034;-78
2023/10/29 00:55:59;;;;;;;7.80;1.70;;;;;;;15.32;45.79;93789.88;5007008;28;20033;-80
2023/10/29 00:58:26;;;;;;;4.35;1.45;;;;;;;15.50;45.56;93813.72;4995527;28;20554;-80
2023/10/29 01:00:51;;;;;;;3.88;1.42;;;;;;;15.41;45.85;93813.84;4994471;28;20041;-80
2023/10/29 01:03:18;;;;;;;5.70;1.33;;;;;;;15.24;46.08;93812.25;4995120;28;20373;-79
2023/10/29 01:05:47;;;;;;;3.10;1.00;;;;;;;15.11;46.12;93797.34;4992834;28;20022;-79
2023/10/29 01:08:20;;;;;;;6.55;1.40;;;;;;;15.11;46.37;93820.69;4993980;28;20026;-79
2023/10/29 01:10:45;;;;;;;3.78;1.42;;;;;;;15.06;46.10;93819.00;4992647;28;20072;-79
2023/10/29 01:13:11;;;;;;;4.57;1.08;;;;;;;15.04;46.21;93811.34;4992778;28;20033;-80
2023/10/29 01:15:36;;;;;;;5.72;1.25;;;;;;;15.12;46.07;93825.69;4993955;28;20631;-78
2023/10/29 01:18:02;;;;;;;5.63;1.30;;;;;;;15.04;46.60;93822.03;5013086;28;20021;-78
2023/10/29 01:20:28;;;;;;;2.60;1.63;;;;;;;14.97;46.03;93813.81;5013644;28;20075;-79
2023/10/29 01:22:54;;;;;;;4.97;1.20;;;;;;;14.94;46.07;93805.69;5015234;28;20049;-77
2023/10/29 01:25:19;;;;;;;3.80;1.10;;;;;;;15.08;45.70;93822.13;5012848;28;20120;-79
2023/10/29 01:27:44;;;;;;;9.13;1.80;;;;;;;15.08;45.73;93827.50;5014073;28;20376;-79
2023/10/29 01:30:10;;;;;;;6.28;1.10;;;;;;;15.01;45.41;93813.91;4994384;28;20036;-79
2023/10/29 01:32:36;;;;;;;2.35;1.00;;;;;;;14.97;45.07;93824.50;5014525;28;20026;-79
2023/10/29 01:35:02;;;;;;;3.13;1.40;;;;;;;14.95;44.92;93828.66;5012221;28;20681;-78
2023/10/29 01:37:28;;;;;;;3.42;1.08;;;;;;;14.92;45.11;93818.63;5014306;28;20383;-79
2023/10/29 01:39:53;;;;;;;2.38;0.90;;;;;;;14.86;44.93;93820.75;5011011;28;20127;-79
2023/10/29 01:42:19;;;;;;;4.47;0.93;;;;;;;14.85;45.03;93835.28;5014424;28;20488;-79
2023/10/29 01:44:44;;;;;;;3.15;0.88;;;;;;;14.85;44.84;93829.91;5011645;28;20518;-79
2023/10/29 01:47:09;;;;;;;3.88;1.45;;;;;;;14.92;44.88;93829.31;4998110;28;20056;-79
2023/10/29 01:49:35;;;;;;;4.00;0.60;;;;;;;14.93;44.91;93838.94;5011660;28;21339;-79
2023/10/29 01:52:00;;;;;;;5.75;1.20;;;;;;;14.84;44.72;93827.56;5014345;28;20349;-79
2023/10/29 01:54:26;;;;;;;2.22;0.90;;;;;;;14.71;45.33;93820.69;5011605;28;20025;-79
2023/10/29 01:56:52;;;;;;;2.80;1.02;;;;;;;14.64;45.66;93817.81;5014954;28;20029;-79
2023/10/29 01:59:17;;;;;;;1.02;0.80;;;;;;;14.65;45.75;93814.00;5010503;28;20025;-78
2023/10/29 02:01:43;;;;;;;4.28;0.85;;;;;;;14.67;45.77;93836.63;5008848;28;20044;-79
2023/10/29 02:04:09;;;;;;;4.93;1.30;;;;;;;14.37;45.82;93782.59;5013985;28;20392;-80
2023/10/29 02:06:39;;;;;;;6.18;1.00;;;;;;;14.60;45.69;93829.19;5016456;28;20021;-79
2023/10/29 02:09:09;;;;;;;1.90;0.80;;;;;;;14.68;45.71;93829.38;5012656;28;20338;-79
2023/10/29 02:11:35;;;;;;;1.83;0.82;;;;;;;14.47;45.92;93803.53;4999021;28;20036;-78
2023/10/29 02:14:04;;;;;;;3.25;1.08;;;;;;;14.56;45.81;93831.00;5016834;28;20476;-79
2023/10/29 02:16:29;;;;;;;3.40;1.23;;;;;;;14.54;46.13;93835.88;5014968;28;20049;-79
2023/10/29 02:18:55;;;;;;;2.83;0.80;;;;;;;14.50;46.25;93826.94;5017350;28;20032;-79
2023/10/29 02:21:22;;;;;;;3.53;1.10;;;;;;;14.40;46.60;93832.75;4997989;28;20037;-78
2023/10/29 02:23:48;;;;;;;2.30;0.82;;;;;;;14.39;46.64;93828.50;5014973;28;20037;-78
2023/10/29 02:26:13;;;;;;;4.78;0.70;;;;;;;14.47;46.83;93835.63;5015927;28;20037;-79
2023/10/29 02:28:38;;;;;;;2.75;1.48;;;;;;;14.48;46.45;93842.56;4998334;28;20701;-79
2023/10/29 02:31:04;;;;;;;3.75;0.95;;;;;;;14.65;45.40;93843.47;5014943;28;20116;-79
2023/10/29 02:33:30;;;;;;;2.67;0.68;;;;;;;14.72;45.66;93840.97;5014496;28;20024;-78
2023/10/29 02:35:56;;;;;;;6.55;0.80;;;;;;;14.54;44.84;93803.00;5015545;28;20037;-79
2023/10/29 02:38:22;;;;;;;4.15;0.70;;;;;;;14.48;45.00;93794.38;5015660;28;20037;-78
2023/10/29 02:40:47;;;;;;;2.45;0.75;;;;;;;14.75;44.91;93835.75;5016263;28;20044;-78
2023/10/29 02:43:13;;;;;;;2.25;1.00;;;;;;;14.91;44.72;93844.59;5015845;28;20360;-78
2023/10/29 02:45:40;;;;;;;3.35;0.80;;;;;;;14.99;44.46;93850.97;5016150;28;20057;-79
2023/10/29 02:48:06;;;;;;;3.75;0.80;;;;;;;15.02;44.77;93845.69;5016055;28;20400;-78
2023/10/29 02:50:31;;;;;;;9.15;1.10;;;;;;;15.09;44.56;93834.41;5017285;28;20037;-78
2023/10/29 02:52:56;;;;;;;2.60;0.88;;;;;;;15.27;44.74;93849.06;5013455;28;20059;-78
2023/10/29 02:55:22;;;;;;;3.35;0.90;;;;;;;15.27;45.26;93849.06;5016708;28;20118;-79
2023/10/29 02:57:47;;;;;;;6.88;1.27;;;;;;;15.15;45.27;93846.47;5015280;28;20018;-79
2023/10/29 03:00:13;;;;;;;5.45;1.98;;;;;;;14.99;45.92;93848.28;4999937;28;20132;-78
2023/10/29 03:02:38;;;;;;;6.05;1.42;;;;;;;14.85;46.43;93845.22;5013247;28;20650;-78
2023/10/29 03:05:04;;;;;;;4.18;1.92;;;;;;;14.71;46.93;93836.75;5016601;28;20037;-78
2023/10/29 03:07:30;;;;;;;6.05;1.70;;;;;;;14.63;46.95;93832.28;5011060;28;20120;-80
2023/10/29 03:09:56;;;;;;;5.50;2.08;;;;;;;14.63;47.00;93856.38;5016490;28;20025;-79
2023/10/29 03:12:21;;;;;;;3.28;1.88;;;;;;;14.50;47.30;93861.72;5015740;28;20559;-79
2023/10/29 03:14:47;;;;;;;5.22;1.95;;;;;;;14.43;47.34;93866.84;4996500;28;20543;-78
2023/10/29 03:17:12;;;;;;;5.88;1.52;;;;;;;14.34;47.27;93855.50;5015027;28;20050;-79
2023/10/29 03:19:37;;;;;;;9.90;1.67;;;;;;;14.35;47.37;93870.44;5013950;28;20399;-79
2023/10/29 03:22:04;;;;;;;5.00;1.58;;;;;;;14.12;47.88;93880.03;5015770;28;20529;-79
2023/10/29 03:24:30;;;;;;;3.97;2.00;;;;;;;14.06;47.92;93857.28;5013751;28;20135;-78
2023/10/29 03:26:55;;;;;;;5.50;1.52;;;;;;;14.06;48.28;93873.31;5014299;28;20041;-79
2023/10/29 03:29:21;;;;;;;6.90;1.92;;;;;;;13.56;48.74;93807.50;5013292;28;20147;-78
2023/10/29 03:31:47;;;;;;;3.83;2.33;;;;;;;13.81;48.85;93855.69;5014427;28;20045;-79
2023/10/29 03:34:13;;;;;;;7.75;2.63;;;;;;;13.74;48.88;93862.34;4998892;28;20358;-78
2023/10/29 03:36:38;;;;;;;7.50;2.50;;;;;;;13.87;49.29;93881.09;5014586;28;20628;-79
2023/10/29 03:39:05;;;;;;;6.82;2.72;;;;;;;13.82;49.14;93884.75;5002492;28;20064;-78
2023/10/29 03:41:30;;;;;;;5.68;3.13;;;;;;;13.72;49.48;93885.97;5013737;28;20795;-79
2023/10/29 03:43:57;;;;;;;9.35;4.30;;;;;;;13.56;49.46;93860.94;5014139;28;20121;-79
2023/10/29 03:46:22;;;;;;;6.53;3.30;;;;;;;13.66;49.68;93886.50;5013255;28;20039;-79
2023/10/29 03:48:48;;;;;;;7.90;4.22;;;;;;;13.45;49.79;93870.47;5016427;28;20025;-78
2023/10/29 03:51:13;;;;;;;7.78;3.47;;;;;;;13.58;50.25;93890.78;5013717;28;20029;-79
2023/10/29 03:53:39;;;;;;;7.72;3.25;;;;;;;13.49;50.19;93879.41;5013577;28;20723;-79
2023/10/29 03:56:04;;;;;;;5.47;3.05;;;;;;;13.55;50.05;93891.44;5014838;28;20048;-79
2023/10/29 03:58:30;;;;;;;7.93;2.90;;;;;;;13.43;49.86;93875.38;5014141;28;20095;-79
2023/10/29 04:00:56;;;;;;;9.85;3.00;;;;;;;13.47;50.02;93894.97;5014460;28;20033;-79
2023/10/29 04:03:22;;;;;;;6.15;2.63;;;;;;;13.27;50.24;93891.22;5015707;28;20375;-79
2023/10/29 04:05:47;;;;;;;8.07;2.22;;;;;;;13.30;50.39;93895.13;5011272;28;20037;-79
2023/10/29 04:08:13;;;;;;;4.95;2.17;;;;;;;13.30;50.11;93905.81;5016079;28;20954;-79
2023/10/29 04:10:39;;;;;;;7.03;2.50;;;;;;;13.45;49.71;93913.22;5013185;28;20599;-78
2023/10/29 04:13:04;;;;;;;3.95;2.00;;;;;;;13.37;50.22;93913.31;5015920;28;20037;-79
2023/10/29 04:15:30;;;;;;;7.55;1.50;;;;;;;13.27;50.01;93917.16;5015293;28;20025;-78
2023/10/29 04:17:56;;;;;;;8.38;1.67;;;;;;;13.20;50.07;93908.91;5013751;28;20144;-79
2023/10/29 04:20:21;;;;;;;2.75;1.40;;;;;;;13.20;50.36;93907.00;5014692;28;20065;-79
2023/10/29 04:22:47;;;;;;;3.03;1.60;;;;;;;13.22;50.29;93898.66;5014374;28;20040;-78
2023/10/29 04:25:12;;;;;;;6.60;1.70;;;;;;;13.14;49.99;93886.16;5014243;28;20036;-78
2023/10/29 04:27:38;;;;;;;6.97;1.85;;;;;;;13.28;49.75;93903.47;5013460;28;20095;-78
2023/10/29 04:30:04;;;;;;;4.03;1.73;;;;;;;13.32;49.80;93900.94;4997956;28;20033;-78
2023/10/29 04:32:29;;;;;;;4.05;1.50;;;;;;;13.13;50.08;93885.38;4995650;28;20040;-78
2023/10/29 04:34:54;;;;;;;3.92;1.42;;;;;;;12.92;50.27;93873.13;5012759;28;20043;-79
2023/10/29 04:37:22;;;;;;;3.90;1.55;;;;;;;12.90;50.54;93884.16;5012618;28;20104;-79
2023/10/29 04:39:50;;;;;;;2.65;1.60;;;;;;;12.75;50.74;93869.50;5013457;28;20025;-79
2023/10/29 04:42:15;;;;;;;4.43;2.55;;;;;;;12.68;50.96;93871.09;5014484;28;20162;-77
2023/10/29 04:44:41;;;;;;;3.33;1.50;;;;;;;12.76;51.20;93892.41;5012515;28;20128;-78
2023/10/29 04:47:06;;;;;;;2.47;1.55;;;;;;;12.79;51.02;93891.75;4997628;28;20484;-78
2023/10/29 04:49:31;;;;;;;2.88;1.60;;;;;;;12.74;51.21;93883.94;5013201;28;20061;-80
2023/10/29 04:51:57;;;;;;;4.95;1.50;;;;;;;12.67;51.10;93888.22;5014986;28;20040;-79
2023/10/29 04:54:22;;;;;;;4.85;1.58;;;;;;;12.61;51.49;93906.31;5012480;28;21521;-79
2023/10/29 04:56:47;;;;;;;3.55;1.90;;;;;;;12.62;51.81;93910.53;5014676;28;20116;-78
2023/10/29 04:59:13;;;;;;;8.10;2.10;;;;;;;12.63;51.63;93920.09;4996826;28;20036;-79
2023/10/29 05:01:38;;;;;;;5.05;1.63;;;;;;;12.72;51.46;93923.50;5014103;28;20069;-79
2023/10/29 05:04:04;;;;;;;5.80;1.70;;;;;;;12.72;51.65;93928.84;5011902;28;20031;-78
2023/10/29 05:06:29;;;;;;;1.90;1.40;;;;;;;12.45;51.70;93906.06;5013248;28;20357;-78
2023/10/29 05:08:56;;;;;;;3.63;1.20;;;;;;;12.71;51.75;93943.28;5013156;28;20076;-78
2023/10/29 05:11:22;;;;;;;3.67;1.40;;;;;;;12.61;51.75;93929.56;5014152;28;20038;-79
2023/10/29 05:13:48;;;;;;;1.67;1.40;;;;;;;12.71;51.45;93937.94;5013220;28;20234;-78
2023/10/29 05:16:14;;;;;;;5.13;1.60;;;;;;;12.45;51.58;93924.72;5013724;28;20060;-79
2023/10/29 05:18:39;;;;;;;4.90;1.52;;;;;;;12.54;51.55;93930.03;4995698;28;21071;-78
2023/10/29 05:21:05;;;;;;;2.78;1.55;;;;;;;12.71;51.24;93955.88;4995987;28;20521;-79
2023/10/29 05:23:30;;;;;;;1.75;1.17;;;;;;;12.84;50.97;93954.84;5013449;28;20064;-78
2023/10/29 05:25:56;;;;;;;4.93;1.38;;;;;;;12.88;50.73;93967.22;5012752;28;20038;-79
2023/10/29 05:28:22;;;;;;;4.00;1.30;;;;;;;12.84;51.09;93968.97;5011426;28;20498;-78
2023/10/29 05:30:48;;;;;;;5.00;1.40;;;;;;;12.62;51.18;93949.78;5015535;28;20227;-78
2023/10/29 05:33:13;;;;;;;3.22;1.10;;;;;;;12.76;51.19;93959.09;5009882;28;20050;-78
2023/10/29 05:35:38;;;;;;;3.45;1.67;;;;;;;12.68;51.37;93941.28;5011642;28;20037;-79
2023/10/29 05:38:04;;;;;;;3.67;1.38;;;;;;;12.75;51.55;93943.44;5015327;28;20045;-78
2023/10/29 05:40:30;;;;;;;3.88;1.27;;;;;;;12.84;51.78;93963.63;5017023;28;20030;-79
2023/10/29 05:42:55;;;;;;;5.82;1.20;;;;;;;12.87;51.90;93971.00;5001069;28;20040;-79
2023/10/29 05:45:21;;;;;;;3.47;1.40;;;;;;;12.95;51.70;93979.28;5017424;28;20127;-79
2023/10/29 05:47:46;;;;;;;9.80;2.05;;;;;;;12.94;51.50;93972.38;5015715;28;20068;-79
2023/10/29 05:50:11;;;;;;;4.40;1.40;;;;;;;13.06;51.68;93980.44;5002390;28;20354;-78
2023/10/29 05:52:37;;;;;;;5.68;1.83;;;;;;;12.94;51.75;93972.38;5015230;28;20494;-79
2023/10/29 05:55:03;;;;;;;4.20;1.25;;;;;;;12.97;52.32;93974.38;5018016;28;20029;-78
2023/10/29 05:57:29;;;;;;;4.03;1.60;;;;;;;13.17;51.88;93992.31;5015993;28;20025;-78
2023/10/29 05:59:55;;;;;;;6.63;2.30;;;;;;;12.88;52.18;94006.47;5023371;28;20029;-81
2023/10/29 06:02:21;;;;;;;5.70;2.40;;;;;;;12.93;52.59;93998.28;5000347;28;20030;-80
2023/10/29 06:04:46;;;;;;;8.45;3.03;;;;;;;13.04;52.08;93982.69;5024620;28;20099;-78
2023/10/29 06:07:12;;;;;;;6.55;2.70;;;;;;;13.23;51.64;94013.19;5003407;28;20040;-78
2023/10/29 06:09:40;;;;;;;8.00;3.38;;;;;;;13.31;51.87;94008.88;5018247;28;20021;-79
2023/10/29 06:12:08;;;;;;;11.68;3.50;;;;;;;13.40;51.49;94011.50;5016066;28;20818;-78
2023/10/29 06:14:33;;;;;;;8.25;2.38;;;;;;;13.35;51.45;93993.75;5011186;28;20171;-78
2023/10/29 06:16:59;;;;;;;4.57;2.38;;;;;;;12.99;51.30;93929.47;4995403;28;20053;-78
2023/10/29 06:19:24;;;;;;;5.05;2.30;;;;;;;13.49;51.26;94005.00;5016244;28;20038;-78
2023/10/29 06:21:50;;;;;;;7.25;2.63;;;;;;;13.72;51.14;94005.47;5002722;28;20120;-78
2023/10/29 06:24:16;;;;;;;7.80;3.35;;;;;;;13.95;50.97;94013.88;5014096;28;20041;-79
2023/10/29 06:26:42;;;;;;;5.63;1.88;;;;;;;14.04;49.90;93999.31;5012107;28;20529;-79
2023/10/29 06:29:08;;;;;;;5.13;1.52;;;;;;;13.99;49.71;93985.38;5016498;28;20471;-78
2023/10/29 06:31:36;;;;;;;11.52;2.90;;;;;;;14.23;50.23;94017.53;5013773;28;20041;-78
2023/10/29 06:34:03;;;;;;;9.95;2.40;;;;;;;14.29;50.05;94026.94;5016199;28;20502;-78
2023/10/29 06:36:29;;;;;;;4.68;2.17;;;;;;;14.45;49.81;94011.81;5015275;28;20032;-78
2023/10/29 06:38:55;;;;;;;8.68;2.72;;;;;;;14.24;50.23;94011.09;5017538;28;20033;-79
2023/10/29 06:41:21;;;;;;;5.07;2.63;;;;;;;14.49;50.25;94030.66;5014655;28;20360;-80
2023/10/29 06:43:47;;;;;;;7.22;3.15;;;;;;;14.57;50.33;94038.59;5020668;28;20164;-79
2023/10/29 06:46:15;;;;;;;9.50;3.88;;;;;;;14.62;50.59;94042.97;5000879;28;20053;-80
2023/10/29 06:48:41;;;;;;;10.43;4.28;;;;;;;14.27;51.27;94037.19;5022848;28;20549;-79
2023/10/29 06:51:11;;;;;;;7.10;4.13;;;;;;;14.32;51.29;94031.63;5020773;28;20166;-81
2023/10/29 06:53:37;;;;;;;6.15;3.65;;;;;;;14.60;51.11;94045.22;5019489;28;20068;-79
2023/10/29 06:56:04;;;;;;;5.07;3.35;;;;;;;14.70;50.22;94046.66;5016023;28;20067;-78
2023/10/29 06:58:29;;;;;;;7.43;3.38;;;;;;;14.73;49.50;94046.00;5015938;28;20049;-79
2023/10/29 07:00:55;;;;;;;5.22;3.45;;;;;;;14.76;49.03;94040.00;5015424;28;20068;-79
2023/10/29 07:03:20;;;;;;;5.30;3.05;;;;;;;14.93;48.88;94047.81;5015042;28;20042;-79
2023/10/29 07:05:45;;;;;;;5.40;3.22;;;;;;;15.00;47.62;94043.47;5015794;28;20037;-78
2023/10/29 07:08:11;;;;;;;9.57;2.20;;;;;;;14.68;47.21;94054.25;4992478;28;20046;-79
2023/10/29 07:10:36;;;;;;;5.53;2.30;;;;;;;14.78;47.77;94064.53;5016937;28;20718;-78
2023/10/29 07:13:02;;;;;;;4.47;2.25;;;;;;;14.85;47.74;94062.09;5014064;28;20057;-79
2023/10/29 07:15:28;;;;;;;6.88;2.00;;;;;;;15.10;47.23;94060.22;5014878;28;20032;-79
2023/10/29 07:17:53;;;;;;;4.88;2.30;;;;;;;15.20;47.35;94060.53;5014687;28;20591;-79
2023/10/29 07:20:19;;;;;;;8.27;2.20;;;;;;;15.24;46.19;94056.06;4996136;28;20605;-78
2023/10/29 07:22:44;;;;;;;5.75;2.10;;;;;;;15.29;46.58;94047.81;5013516;28;20513;-78
2023/10/29 07:25:09;;;;;;;13.05;2.63;;;;;;;15.46;46.11;94058.31;5014565;28;20029;-79
2023/10/29 07:27:35;;;;;;;6.35;2.47;;;;;;;15.27;46.24;94054.59;5013212;28;20747;-79
2023/10/29 07:30:02;;;;;;;8.05;2.15;;;;;;;15.31;46.29;94040.19;5016903;28;20037;-78
2023/10/29 07:32:28;;;;;;;3.75;2.10;;;;;;;15.46;46.27;94047.59;5015614;28;20068;-79
2023/10/29 07:34:54;;;;;;;9.00;2.72;;;;;;;15.61;44.84;94075.59;5013770;28;20041;-79
2023/10/29 07:37:19;;;;;;;8.95;3.17;;;;;;;15.57;45.66;94063.19;5013732;28;20052;-79
2023/10/29 07:39:44;;;;;;;7.40;2.33;;;;;;;15.63;45.37;94067.22;4998099;28;20597;-78
2023/10/29 07:42:10;;;;;;;4.18;2.03;;;;;;;15.33;46.15;94047.91;5014383;28;20154;-79
2023/10/29 07:44:35;;;;;;;4.35;1.70;;;;;;;15.45;45.22;94056.72;5007380;28;20238;-80
2023/10/29 07:47:07;;;;;;;5.95;2.15;;;;;;;15.06;45.94;94056.63;4996540;28;20034;-79
2023/10/29 07:49:33;;;;;;;5.60;2.40;;;;;;;15.43;45.14;94050.13;5009860;28;20555;-79
2023/10/29 07:51:59;;;;;;;5.15;1.95;;;;;;;15.68;45.16;94064.31;5008881;28;20229;-79
2023/10/29 07:54:24;;;;;;;6.13;2.60;;;;;;;15.24;45.78;94072.16;5012447;28;20112;-79
2023/10/29 07:56:49;;;;;;;3.75;1.90;;;;;;;15.14;45.93;94071.81;5015428;28;20037;-79
2023/10/29 07:59:15;;;;;;;5.70;3.17;;;;;;;14.96;46.30;94065.91;5013192;28;21146;-79
2023/10/29 08:01:40;;;;;;;9.05;2.33;;;;;;;15.28;46.14;94073.03;5014769;28;20037;-79
2023/10/29 08:04:06;;;;;;;8.52;2.53;;;;;;;15.25;45.99;94068.34;5013981;28;20033;-79
2023/10/29 08:06:32;;;;;;;7.32;2.55;;;;;;;15.38;45.98;94053.03;5010987;28;20029;-79
2023/10/29 08:08:57;;;;;;;5.10;2.40;;;;;;;15.73;45.58;94069.44;5010118;28;20490;-80
2023/10/29 08:11:23;;;;;;;6.13;2.38;;;;;;;15.75;44.89;94037.69;5014002;28;20091;-79
2023/10/29 08:13:50;;;;;;;5.68;2.20;;;;;;;15.99;45.88;94059.06;5012752;28;20029;-80
2023/10/29 08:16:18;;;;;;;8.45;3.03;;;;;;;16.15;44.56;94054.53;5015138;28;20096;-78
2023/10/29 08:18:44;;;;;;;6.90;2.58;;;;;;;16.15;45.43;94051.84;5013113;28;20476;-80
2023/10/29 08:21:09;;;;;;;4.22;2.20;;;;;;;15.77;44.98;94024.72;5002314;28;20060;-79
2023/10/29 08:23:35;;;;;;;6.13;2.00;;;;;;;16.22;44.70;94062.78;5030714;28;20029;-78
2023/10/29 08:26:01;;;;;;;4.82;2.30;;;;;;;16.29;44.76;94060.28;5011450;28;20065;-78
2023/10/29 08:28:27;;;;;;;5.07;2.00;;;;;;;16.46;44.18;94066.50;5011743;28;20566;-79
2023/10/29 08:30:54;;;;;;;4.78;2.28;;;;;;;16.01;45.04;94078.28;5033018;28;20526;-80
2023/10/29 08:33:20;;;;;;;4.90;2.15;;;;;;;15.93;45.58;94076.53;5031329;28;20049;-77
2023/10/29 08:35:46;;;;;;;4.93;2.20;;;;;;;16.07;44.74;94071.56;5027667;28;20131;-78
2023/10/29 08:38:12;;;;;;;6.45;2.60;;;;;;;16.24;44.53;94076.63;4994731;28;20041;-78
2023/10/29 08:40:38;;;;;;;4.55;2.22;;;;;;;16.17;44.69;94071.09;5010885;28;20419;-79
2023/10/29 08:43:06;;;;;;;6.60;2.13;;;;;;;16.01;44.89;94067.56;4987983;28;20037;-79
2023/10/29 08:45:32;;;;;;;6.20;1.80;;;;;;;15.97;44.81;94087.34;5013959;28;20408;-78
2023/10/29 08:47:57;;;;;;;7.55;2.67;;;;;;;16.40;44.57;94084.75;5002783;28;20143;-79
2023/10/29 08:50:23;;;;;;;4.88;2.42;;;;;;;16.67;44.03;94083.94;4997484;28;20152;-78
2023/10/29 08:52:48;;;;;;;6.18;2.88;;;;;;;16.75;44.35;94090.28;5004858;28;20488;-78
2023/10/29 08:55:14;;;;;;;7.03;3.22;;;;;;;16.50;44.89;94099.59;5006381;28;20029;-78
2023/10/29 08:57:40;;;;;;;6.25;3.13;;;;;;;16.80;43.65;94091.94;5001123;28;20647;-78
2023/10/29 09:00:06;;;;;;;6.07;2.95;;;;;;;16.79;43.98;94085.78;5008066;28;20033;-78
2023/10/29 09:02:32;;;;;;;9.77;3.10;;;;;;;16.60;43.86;94077.63;5010629;28;20049;-77
2023/10/29 09:04:57;;;;;;;10.93;3.72;;;;;;;16.84;43.81;94090.91;4991710;28;20034;-79
2023/10/29 09:07:27;;;;;;;6.07;3.20;;;;;;;16.84;43.06;94063.25;4988182;28;20052;-78
2023/10/29 09:09:53;;;;;;;11.45;3.80;;;;;;;17.08;43.70;94063.88;5013159;28;20032;-79
2023/10/29 09:12:20;;;;;;;4.18;3.05;;;;;;;17.30;43.66;94077.84;4999342;28;20029;-78
2023/10/29 09:14:46;;;;;;;9.20;3.60;;;;;;;17.25;42.79;94080.81;5016468;28;20052;-78
2023/10/29 09:17:11;;;;;;;8.15;3.38;;;;;;;16.85;43.98;94073.66;5015041;28;20038;-77
2023/10/29 09:19:36;;;;;;;8.65;3.08;;;;;;;17.05;43.62;94078.00;5028526;28;20038;-78
2023/10/29 09:22:02;;;;;;;7.53;2.92;;;;;;;17.21;43.33;94079.94;5012263;28;20021;-78
2023/10/29 09:24:28;;;;;;;9.48;2.88;;;;;;;17.02;43.12;94067.94;5028739;28;20041;-78
2023/10/29 09:26:56;;;;;;;11.57;2.78;;;;;;;17.01;42.37;94069.06;5001976;28;20038;-78
2023/10/29 09:29:23;;;;;;;4.68;2.17;;;;;;;17.34;42.56;94078.72;5014167;28;20241;-77
2023/10/29 09:31:50;;;;;;;17.42;3.45;;;;;;;17.45;42.53;94079.75;5017335;28;20034;-77
2023/10/29 09:34:16;;;;;;;8.98;3.40;;;;;;;17.14;42.48;94043.72;5011776;28;20026;-78
2023/10/29 09:36:43;;;;;;;8.32;3.17;;;;;;;17.18;42.92;94066.06;5012561;28;20657;-78
2023/10/29 09:39:09;;;;;;;7.20;2.53;;;;;;;17.43;42.37;94084.69;5013846;28;20534;-77
2023/10/29 09:41:36;;;;;;;8.85;2.30;;;;;;;17.56;42.46;94070.00;4999361;28;20604;-77
2023/10/29 09:44:05;;;;;;;8.07;2.65;;;;;;;17.71;41.91;94071.09;5015070;28;20072;-77
2023/10/29 09:46:33;;;;;;;4.65;1.75;;;;;;;17.61;41.28;94069.72;5013760;28;20669;-77
2023/10/29 09:49:00;;;;;;;5.70;1.88;;;;;;;17.51;42.42;94054.13;5018010;28;20032;-77
2023/10/29 09:51:26;;;;;;;7.82;1.90;;;;;;;17.54;40.60;94064.19;5014598;28;20113;-77
2023/10/29 09:53:53;;;;;;;3.25;1.67;;;;;;;17.45;40.97;94052.84;5014002;28;20116;-78
2023/10/29 09:56:18;;;;;;;3.40;1.58;;;;;;;17.22;41.13;94038.47;5018682;28;20034;-77
2023/10/29 09:58:44;;;;;;;9.63;2.58;;;;;;;17.35;41.66;94048.00;5015039;28;20041;-78
2023/10/29 10:01:09;;;;;;;6.90;2.08;;;;;;;17.34;41.87;94041.06;5018393;28;20517;-78
2023/10/29 10:03:35;;;;;;;5.78;2.30;;;;;;;17.54;41.86;94040.00;5015691;28;20029;-77
2023/10/29 10:06:01;;;;;;;6.03;1.95;;;;;;;17.18;41.81;94019.59;5001112;28;20111;-78
2023/10/29 10:08:28;;;;;;;5.75;1.92;;;;;;;17.46;41.50;94028.28;5012920;28;20514;-77
2023/10/29 10:10:56;;;;;;;5.85;2.58;;;;;;;17.40;40.36;94047.75;5018209;28;20057;-78
2023/10/29 10:13:48;;;;;;;7.25;2.15;;;;;;;17.45;40.99;94039.41;5016410;28;20121;-78
2023/10/29 10:16:15;;;;;;;9.93;2.45;;;;;;;17.54;41.11;94034.63;4995281;28;20046;-77
2023/10/29 10:18:53;;;;;;;7.47;1.83;;;;;;;17.75;41.19;94035.06;4998279;28;20029;-78
2023/10/29 10:21:23;;;;;;;4.15;1.73;;;;;;;17.68;40.85;94043.00;5016039;28;20037;-78
2023/10/29 10:23:51;;;;;;;6.28;2.08;;;;;;;17.43;40.84;94028.22;5015701;28;20114;-78
2023/10/29 10:26:27;;;;;;;5.55;2.28;;;;;;;17.37;41.16;94040.38;5017172;28;20504;-79
2023/10/29 10:28:58;;;;;;;8.38;1.73;;;;;;;17.65;41.29;94027.53;5017244;28;20728;-78
2023/10/29 10:31:28;;;;;;;7.07;1.98;;;;;;;18.00;40.08;94031.00;5016195;28;20030;-78
2023/10/29 10:34:15;;;;;;;7.05;2.53;;;;;;;18.12;40.18;94026.63;5016738;28;20454;-77
2023/10/29 10:36:42;;;;;;;5.78;1.70;;;;;;;17.94;39.73;94010.13;4998144;28;20041;-78
2023/10/29 10:39:07;;;;;;;6.10;1.67;;;;;;;17.81;40.10;94016.72;5000982;28;20045;-78
2023/10/29 10:41:47;;;;;;;3.92;1.30;;;;;;;18.03;40.31;94024.13;5015566;28;20038;-77
2023/10/29 10:44:14;;;;;;;4.28;1.75;;;;;;;17.74;40.24;93977.03;4997944;28;20037;-78
2023/10/29 10:46:54;;;;;;;5.18;1.92;;;;;;;17.94;39.80;94004.75;5013216;28;20128;-79
2023/10/29 10:49:21;;;;;;;4.85;1.90;;;;;;;18.00;39.94;94020.22;4997023;28;20033;-77
2023/10/29 10:51:49;;;;;;;5.72;1.75;;;;;;;18.21;39.41;94019.09;5003774;28;20075;-77
2023/10/29 10:54:18;;;;;;;5.82;1.83;;;;;;;18.48;39.53;94011.91;5014091;28;20048;-78
2023/10/29 10:56:43;;;;;;;9.57;1.92;;;;;;;18.70;40.50;94017.34;5017449;28;20376;-78
2023/10/29 10:59:09;;;;;;;8.10;2.63;;;;;;;18.57;38.64;93967.44;5016744;28;20037;-78
2023/10/29 11:01:36;;;;;;;5.25;2.22;;;;;;;18.82;39.27;94005.59;5016891;28;20048;-79
2023/10/29 11:04:03;;;;;;;7.85;1.88;;;;;;;18.94;38.29;94010.00;5015468;28;20025;-77
2023/10/29 11:06:31;;;;;;;6.25;1.60;;;;;;;18.79;37.25;94015.16;5016497;28;20546;-78
2023/10/29 11:08:58;;;;;;;5.38;1.85;;;;;;;18.76;37.15;93996.25;4997091;28;20046;-79
2023/10/29 11:11:36;;;;;;;3.53;2.10;;;;;;;18.71;36.57;94002.72;5015111;28;20064;-78
2023/10/29 11:14:11;;;;;;;5.47;1.85;;;;;;;18.50;37.23;94015.78;5014941;28;20564;-77
2023/10/29 11:16:49;;;;;;;9.02;2.78;;;;;;;18.77;36.83;94012.03;4998940;28;20057;-78
2023/10/29 11:19:44;;;;;;;7.03;2.30;;;;;;;18.88;36.85;94007.63;5015439;28;20025;-78
2023/10/29 11:22:17;;;;;;;4.83;1.57;;;;;;;18.79;37.02;94001.69;5016965;28;20523;-78
2023/10/29 11:24:43;;;;;;;7.28;1.80;;;;;;;18.77;36.88;93992.44;5013284;28;20499;-78
2023/10/29 11:27:37;;;;;;;6.15;1.90;;;;;;;18.73;36.69;93996.97;5016979;28;20038;-77
2023/10/29 11:30:13;;;;;;;6.00;1.33;;;;;;;18.69;36.75;93977.25;5019739;28;20045;-78
2023/10/29 11:32:40;;;;;;;3.38;1.58;;;;;;;18.86;36.47;93990.28;5028117;28;20040;-78